Cheshire, Massachusetts
Current Conditions -  °F | °C
As of 10:52 AM on Friday 31 Oct 2014 (Local Time) from KAQW Reporting Station
Scattered Clouds Scattered Clouds  
Wind Chill: 40°   Ceiling: Unl
Heat Index: 40°   Visibility: 10mi
Dew Point: 34°   Wind: 3mph
Humidity: 79%   Direction: 130°SE
Pressure: 30.03"   Gusts: NA
Location:  42.56°N, 73.16°W
Report Text: KAQW 311452Z AUTO 13003KT 10SM SCT050 04/01 A3003 RMK AO2 SLP173 T00440011 58008
Loading
Personal Weather Stations






























Interactive Weather Map
Tropical Storm Tracking
New forecast layout! Learn more

10-Day Weather Forecast

Advertisements
Track Severe Weather on mobile